sensor_id;sensor_type;location;lat;lon;timestamp;temperature;humidity
20200;DHT22;36284;37.236;-121.934;2022-11-03T00:02:02;14.50;99.90
20200;DHT22;36284;37.236;-121.934;2022-11-03T00:04:29;14.40;99.90
20200;DHT22;36284;37.236;-121.934;2022-11-03T00:06:56;14.20;99.90
20200;DHT22;36284;37.236;-121.934;2022-11-03T00:09:23;14.10;99.90
20200;DHT22;36284;37.236;-121.934;2022-11-03T00:11:52;14.10;99.90
20200;DHT22;36284;37.236;-121.934;2022-11-03T00:14:19;13.90;99.90
20200;DHT22;36284;37.236;-121.934;2022-11-03T00:16:46;13.80;99.90
20200;DHT22;36284;37.236;-121.934;2022-11-03T00:19:14;13.80;99.90
20200;DHT22;36284;37.236;-121.934;2022-11-03T00:21:43;13.80;99.90
20200;DHT22;36284;37.236;-121.934;2022-11-03T00:24:10;13.80;99.90
20200;DHT22;36284;37.236;-121.934;2022-11-03T00:26:37;13.80;99.90
20200;DHT22;36284;37.236;-121.934;2022-11-03T00:29:09;13.70;99.90
20200;DHT22;36284;37.236;-121.934;2022-11-03T00:31:37;13.60;99.90
20200;DHT22;36284;37.236;-121.934;2022-11-03T00:34:06;13.50;99.90
20200;DHT22;36284;37.236;-121.934;2022-11-03T00:36:41;13.30;99.90
20200;DHT22;36284;37.236;-121.934;2022-11-03T00:39:09;13.40;99.90
20200;DHT22;36284;37.236;-121.934;2022-11-03T00:41:36;13.30;99.90
20200;DHT22;36284;37.236;-121.934;2022-11-03T00:44:04;13.30;99.90
20200;DHT22;36284;37.236;-121.934;2022-11-03T00:46:31;13.20;99.90
20200;DHT22;36284;37.236;-121.934;2022-11-03T00:49:03;13.20;99.90
20200;DHT22;36284;37.236;-121.934;2022-11-03T00:51:30;13.20;99.90
20200;DHT22;36284;37.236;-121.934;2022-11-03T00:54:00;13.10;99.90
20200;DHT22;36284;37.236;-121.934;2022-11-03T00:56:33;13.10;99.90
20200;DHT22;36284;37.236;-121.934;2022-11-03T00:59:02;13.00;99.90
20200;DHT22;36284;37.236;-121.934;2022-11-03T01:01:32;12.90;99.90
20200;DHT22;36284;37.236;-121.934;2022-11-03T01:04:03;12.80;99.90
20200;DHT22;36284;37.236;-121.934;2022-11-03T01:06:50;12.60;99.90
20200;DHT22;36284;37.236;-121.934;2022-11-03T01:12:15;12.20;99.90
20200;DHT22;36284;37.236;-121.934;2022-11-03T01:14:51;11.90;99.90
20200;DHT22;36284;37.236;-121.934;2022-11-03T01:17:26;11.70;99.90
20200;DHT22;36284;37.236;-121.934;2022-11-03T01:19:54;11.70;99.90
20200;DHT22;36284;37.236;-121.934;2022-11-03T01:22:22;11.60;99.90
20200;DHT22;36284;37.236;-121.934;2022-11-03T01:24:49;11.50;99.90
20200;DHT22;36284;37.236;-121.934;2022-11-03T01:27:18;11.30;99.90
20200;DHT22;36284;37.236;-121.934;2022-11-03T01:29:46;11.40;99.90
20200;DHT22;36284;37.236;-121.934;2022-11-03T01:32:13;11.20;99.90
20200;DHT22;36284;37.236;-121.934;2022-11-03T01:34:39;11.10;99.90
20200;DHT22;36284;37.236;-121.934;2022-11-03T01:37:07;10.90;99.90
20200;DHT22;36284;37.236;-121.934;2022-11-03T01:39:34;10.80;99.90
20200;DHT22;36284;37.236;-121.934;2022-11-03T01:42:01;10.60;99.90
20200;DHT22;36284;37.236;-121.934;2022-11-03T01:44:31;10.40;99.90
20200;DHT22;36284;37.236;-121.934;2022-11-03T01:49:43;10.20;99.90
20200;DHT22;36284;37.236;-121.934;2022-11-03T01:52:27;10.00;99.90
20200;DHT22;36284;37.236;-121.934;2022-11-03T01:55:06;10.00;99.90
20200;DHT22;36284;37.236;-121.934;2022-11-03T01:57:58;10.00;99.90
20200;DHT22;36284;37.236;-121.934;2022-11-03T02:00:27;9.80;99.90
20200;DHT22;36284;37.236;-121.934;2022-11-03T02:02:54;9.60;99.90
20200;DHT22;36284;37.236;-121.934;2022-11-03T02:05:23;9.40;99.90
20200;DHT22;36284;37.236;-121.934;2022-11-03T02:08:04;9.40;99.90
20200;DHT22;36284;37.236;-121.934;2022-11-03T02:10:33;9.40;99.90
20200;DHT22;36284;37.236;-121.934;2022-11-03T02:13:01;9.30;99.90
20200;DHT22;36284;37.236;-121.934;2022-11-03T02:15:32;9.20;99.90
20200;DHT22;36284;37.236;-121.934;2022-11-03T02:17:59;9.10;99.90
20200;DHT22;36284;37.236;-121.934;2022-11-03T02:20:30;8.90;99.90
20200;DHT22;36284;37.236;-121.934;2022-11-03T02:23:19;8.90;99.90
20200;DHT22;36284;37.236;-121.934;2022-11-03T02:25:51;8.90;99.90
20200;DHT22;36284;37.236;-121.934;2022-11-03T02:28:29;8.90;99.90
20200;DHT22;36284;37.236;-121.934;2022-11-03T02:38:59;8.70;99.90
20200;DHT22;36284;37.236;-121.934;2022-11-03T02:41:29;8.50;99.90
20200;DHT22;36284;37.236;-121.934;2022-11-03T02:43:57;8.60;99.90
20200;DHT22;36284;37.236;-121.934;2022-11-03T02:46:27;8.50;99.90
20200;DHT22;36284;37.236;-121.934;2022-11-03T02:48:58;8.50;99.90
20200;DHT22;36284;37.236;-121.934;2022-11-03T02:51:25;8.40;99.90
20200;DHT22;36284;37.236;-121.934;2022-11-03T02:57:00;8.30;99.90
20200;DHT22;36284;37.236;-121.934;2022-11-03T02:59:38;8.40;99.90
20200;DHT22;36284;37.236;-121.934;2022-11-03T03:02:13;8.30;99.90
20200;DHT22;36284;37.236;-121.934;2022-11-03T03:04:55;8.30;99.90
20200;DHT22;36284;37.236;-121.934;2022-11-03T03:07:32;8.20;99.90
20200;DHT22;36284;37.236;-121.934;2022-11-03T03:10:14;8.10;99.90
20200;DHT22;36284;37.236;-121.934;2022-11-03T03:12:56;8.20;99.90
20200;DHT22;36284;37.236;-121.934;2022-11-03T03:15:53;8.00;99.90
20200;DHT22;36284;37.236;-121.934;2022-11-03T03:18:26;7.90;99.90
20200;DHT22;36284;37.236;-121.934;2022-11-03T03:21:00;7.90;99.90
20200;DHT22;36284;37.236;-121.934;2022-11-03T03:23:35;7.80;99.90
20200;DHT22;36284;37.236;-121.934;2022-11-03T03:26:04;7.80;99.90
20200;DHT22;36284;37.236;-121.934;2022-11-03T03:28:37;7.80;99.90
20200;DHT22;36284;37.236;-121.934;2022-11-03T03:31:09;7.90;99.90
20200;DHT22;36284;37.236;-121.934;2022-11-03T03:33:39;7.90;99.90
20200;DHT22;36284;37.236;-121.934;2022-11-03T03:36:10;7.80;99.90
20200;DHT22;36284;37.236;-121.934;2022-11-03T03:38:43;7.90;99.90
20200;DHT22;36284;37.236;-121.934;2022-11-03T03:41:13;7.80;99.90
20200;DHT22;36284;37.236;-121.934;2022-11-03T03:43:52;7.80;99.90
20200;DHT22;36284;37.236;-121.934;2022-11-03T03:46:22;7.90;99.90
20200;DHT22;36284;37.236;-121.934;2022-11-03T03:48:51;7.90;99.90
20200;DHT22;36284;37.236;-121.934;2022-11-03T03:51:23;7.80;99.90
20200;DHT22;36284;37.236;-121.934;2022-11-03T03:53:52;7.70;99.90
20200;DHT22;36284;37.236;-121.934;2022-11-03T03:56:27;7.70;99.90
20200;DHT22;36284;37.236;-121.934;2022-11-03T03:58:56;7.60;99.90
20200;DHT22;36284;37.236;-121.934;2022-11-03T04:01:23;7.70;99.90
20200;DHT22;36284;37.236;-121.934;2022-11-03T04:03:50;7.70;99.90
20200;DHT22;36284;37.236;-121.934;2022-11-03T04:06:17;7.70;99.90
20200;DHT22;36284;37.236;-121.934;2022-11-03T04:08:44;7.80;99.90
20200;DHT22;36284;37.236;-121.934;2022-11-03T04:11:11;7.80;99.90
20200;DHT22;36284;37.236;-121.934;2022-11-03T04:13:56;7.80;99.90
20200;DHT22;36284;37.236;-121.934;2022-11-03T04:16:41;7.60;99.90
20200;DHT22;36284;37.236;-121.934;2022-11-03T04:19:26;7.50;99.90
20200;DHT22;36284;37.236;-121.934;2022-11-03T04:22:30;7.50;99.90
20200;DHT22;36284;37.236;-121.934;2022-11-03T04:24:57;7.30;99.90
20200;DHT22;36284;37.236;-121.934;2022-11-03T04:27:26;7.40;99.90
20200;DHT22;36284;37.236;-121.934;2022-11-03T04:32:36;7.40;99.90
20200;DHT22;36284;37.236;-121.934;2022-11-03T04:35:26;7.40;99.90
20200;DHT22;36284;37.236;-121.934;2022-11-03T04:38:08;7.50;99.90
20200;DHT22;36284;37.236;-121.934;2022-11-03T04:40:48;7.40;99.90
20200;DHT22;36284;37.236;-121.934;2022-11-03T04:43:18;7.50;99.90
20200;DHT22;36284;37.236;-121.934;2022-11-03T04:45:46;7.50;99.90
20200;DHT22;36284;37.236;-121.934;2022-11-03T04:48:33;7.50;99.90
20200;DHT22;36284;37.236;-121.934;2022-11-03T04:51:01;7.70;99.90
20200;DHT22;36284;37.236;-121.934;2022-11-03T04:53:36;7.70;99.90
20200;DHT22;36284;37.236;-121.934;2022-11-03T04:56:14;7.60;99.90
20200;DHT22;36284;37.236;-121.934;2022-11-03T04:58:41;7.60;99.90
20200;DHT22;36284;37.236;-121.934;2022-11-03T05:01:13;7.50;99.90
20200;DHT22;36284;37.236;-121.934;2022-11-03T05:03:42;7.50;99.90
20200;DHT22;36284;37.236;-121.934;2022-11-03T05:06:18;7.40;99.90
20200;DHT22;36284;37.236;-121.934;2022-11-03T05:08:51;7.40;99.90
20200;DHT22;36284;37.236;-121.934;2022-11-03T05:13:51;7.30;99.90
20200;DHT22;36284;37.236;-121.934;2022-11-03T05:16:19;7.40;99.90
20200;DHT22;36284;37.236;-121.934;2022-11-03T05:18:47;7.50;99.90
20200;DHT22;36284;37.236;-121.934;2022-11-03T05:21:17;7.50;99.90
20200;DHT22;36284;37.236;-121.934;2022-11-03T05:23:51;7.50;99.90
20200;DHT22;36284;37.236;-121.934;2022-11-03T05:26:44;7.30;99.90
20200;DHT22;36284;37.236;-121.934;2022-11-03T05:29:20;7.10;99.90
20200;DHT22;36284;37.236;-121.934;2022-11-03T05:31:50;7.10;99.90
20200;DHT22;36284;37.236;-121.934;2022-11-03T05:34:34;7.00;99.90
20200;DHT22;36284;37.236;-121.934;2022-11-03T05:37:32;7.10;99.90
20200;DHT22;36284;37.236;-121.934;2022-11-03T05:42:39;7.10;99.90
20200;DHT22;36284;37.236;-121.934;2022-11-03T05:45:34;7.10;99.90
20200;DHT22;36284;37.236;-121.934;2022-11-03T05:48:17;7.00;99.90
20200;DHT22;36284;37.236;-121.934;2022-11-03T05:50:48;6.90;99.90
20200;DHT22;36284;37.236;-121.934;2022-11-03T05:53:24;7.00;99.90
20200;DHT22;36284;37.236;-121.934;2022-11-03T05:55:53;6.80;99.90
20200;DHT22;36284;37.236;-121.934;2022-11-03T05:58:34;6.80;99.90
20200;DHT22;36284;37.236;-121.934;2022-11-03T06:01:36;6.90;99.90
20200;DHT22;36284;37.236;-121.934;2022-11-03T06:04:27;7.00;99.90
20200;DHT22;36284;37.236;-121.934;2022-11-03T06:07:03;6.80;99.90
20200;DHT22;36284;37.236;-121.934;2022-11-03T06:09:32;6.80;99.90
20200;DHT22;36284;37.236;-121.934;2022-11-03T06:12:03;7.00;99.90
20200;DHT22;36284;37.236;-121.934;2022-11-03T06:14:31;7.00;99.90
20200;DHT22;36284;37.236;-121.934;2022-11-03T06:17:03;6.90;99.90
20200;DHT22;36284;37.236;-121.934;2022-11-03T06:19:46;6.80;99.90
20200;DHT22;36284;37.236;-121.934;2022-11-03T06:22:24;6.80;99.90
20200;DHT22;36284;37.236;-121.934;2022-11-03T06:25:29;6.80;99.90
20200;DHT22;36284;37.236;-121.934;2022-11-03T06:28:02;6.90;99.90
20200;DHT22;36284;37.236;-121.934;2022-11-03T06:30:35;6.90;99.90
20200;DHT22;36284;37.236;-121.934;2022-11-03T06:33:19;6.90;99.90
20200;DHT22;36284;37.236;-121.934;2022-11-03T06:35:49;6.70;99.90
20200;DHT22;36284;37.236;-121.934;2022-11-03T06:38:22;6.70;99.90
20200;DHT22;36284;37.236;-121.934;2022-11-03T06:40:51;6.80;99.90
20200;DHT22;36284;37.236;-121.934;2022-11-03T06:43:19;6.80;99.90
20200;DHT22;36284;37.236;-121.934;2022-11-03T06:45:55;6.80;99.90
20200;DHT22;36284;37.236;-121.934;2022-11-03T06:48:29;6.90;99.90
20200;DHT22;36284;37.236;-121.934;2022-11-03T06:50:58;7.00;99.90
20200;DHT22;36284;37.236;-121.934;2022-11-03T06:53:28;7.10;99.90
20200;DHT22;36284;37.236;-121.934;2022-11-03T06:55:57;7.10;99.90
20200;DHT22;36284;37.236;-121.934;2022-11-03T06:58:34;7.10;99.90
20200;DHT22;36284;37.236;-121.934;2022-11-03T07:01:26;7.00;99.90
20200;DHT22;36284;37.236;-121.934;2022-11-03T07:03:55;6.90;99.90
20200;DHT22;36284;37.236;-121.934;2022-11-03T07:06:24;6.90;99.90
20200;DHT22;36284;37.236;-121.934;2022-11-03T07:08:59;6.90;99.90
20200;DHT22;36284;37.236;-121.934;2022-11-03T07:11:35;6.80;99.90
20200;DHT22;36284;37.236;-121.934;2022-11-03T07:14:22;6.80;99.90
20200;DHT22;36284;37.236;-121.934;2022-11-03T07:19:24;6.60;99.90
20200;DHT22;36284;37.236;-121.934;2022-11-03T07:21:53;6.60;99.90
20200;DHT22;36284;37.236;-121.934;2022-11-03T07:24:28;6.50;99.90
20200;DHT22;36284;37.236;-121.934;2022-11-03T07:26:59;6.40;99.90
20200;DHT22;36284;37.236;-121.934;2022-11-03T07:29:28;6.30;99.90
20200;DHT22;36284;37.236;-121.934;2022-11-03T07:31:58;6.20;99.90
20200;DHT22;36284;37.236;-121.934;2022-11-03T07:34:31;6.20;99.90
20200;DHT22;36284;37.236;-121.934;2022-11-03T07:36:59;6.20;99.90
20200;DHT22;36284;37.236;-121.934;2022-11-03T07:39:32;6.20;99.90
20200;DHT22;36284;37.236;-121.934;2022-11-03T07:42:08;6.40;99.90
20200;DHT22;36284;37.236;-121.934;2022-11-03T07:44:39;6.50;99.90
20200;DHT22;36284;37.236;-121.934;2022-11-03T07:47:11;6.40;99.90
20200;DHT22;36284;37.236;-121.934;2022-11-03T07:49:39;6.50;99.90
20200;DHT22;36284;37.236;-121.934;2022-11-03T07:52:13;6.60;99.90
20200;DHT22;36284;37.236;-121.934;2022-11-03T07:54:40;6.60;99.90
20200;DHT22;36284;37.236;-121.934;2022-11-03T07:57:19;6.60;99.90
20200;DHT22;36284;37.236;-121.934;2022-11-03T07:59:53;6.90;99.90
20200;DHT22;36284;37.236;-121.934;2022-11-03T08:05:05;7.30;99.90
20200;DHT22;36284;37.236;-121.934;2022-11-03T08:07:32;7.40;99.90
20200;DHT22;36284;37.236;-121.934;2022-11-03T08:09:59;7.50;99.90
20200;DHT22;36284;37.236;-121.934;2022-11-03T08:12:25;7.50;99.90
20200;DHT22;36284;37.236;-121.934;2022-11-03T08:14:52;7.40;99.90
20200;DHT22;36284;37.236;-121.934;2022-11-03T08:17:19;7.40;99.90
20200;DHT22;36284;37.236;-121.934;2022-11-03T08:19:46;7.40;99.90
20200;DHT22;36284;37.236;-121.934;2022-11-03T08:22:13;7.40;99.90
20200;DHT22;36284;37.236;-121.934;2022-11-03T08:24:40;7.30;99.90
20200;DHT22;36284;37.236;-121.934;2022-11-03T08:27:06;7.40;99.90
20200;DHT22;36284;37.236;-121.934;2022-11-03T08:29:33;7.20;99.90
20200;DHT22;36284;37.236;-121.934;2022-11-03T08:32:00;7.10;99.90
20200;DHT22;36284;37.236;-121.934;2022-11-03T08:34:27;7.00;99.90
20200;DHT22;36284;37.236;-121.934;2022-11-03T08:36:54;6.90;99.90
20200;DHT22;36284;37.236;-121.934;2022-11-03T08:39:21;6.90;99.90
20200;DHT22;36284;37.236;-121.934;2022-11-03T08:41:48;6.90;99.90
20200;DHT22;36284;37.236;-121.934;2022-11-03T08:44:15;6.80;99.90
20200;DHT22;36284;37.236;-121.934;2022-11-03T08:46:42;6.80;99.90
20200;DHT22;36284;37.236;-121.934;2022-11-03T08:49:08;6.80;99.90
20200;DHT22;36284;37.236;-121.934;2022-11-03T08:51:35;6.80;99.90
20200;DHT22;36284;37.236;-121.934;2022-11-03T08:54:03;6.60;99.90
20200;DHT22;36284;37.236;-121.934;2022-11-03T08:56:30;6.40;99.90
20200;DHT22;36284;37.236;-121.934;2022-11-03T08:58:57;6.40;99.90
20200;DHT22;36284;37.236;-121.934;2022-11-03T09:01:23;6.40;99.90
20200;DHT22;36284;37.236;-121.934;2022-11-03T09:03:50;6.40;99.90
20200;DHT22;36284;37.236;-121.934;2022-11-03T09:06:17;6.30;99.90
20200;DHT22;36284;37.236;-121.934;2022-11-03T09:08:44;6.30;99.90
20200;DHT22;36284;37.236;-121.934;2022-11-03T09:11:11;6.30;99.90
20200;DHT22;36284;37.236;-121.934;2022-11-03T09:13:38;6.20;99.90
20200;DHT22;36284;37.236;-121.934;2022-11-03T09:16:05;6.00;99.90
20200;DHT22;36284;37.236;-121.934;2022-11-03T09:18:32;6.00;99.90
20200;DHT22;36284;37.236;-121.934;2022-11-03T09:20:59;5.90;99.90
20200;DHT22;36284;37.236;-121.934;2022-11-03T09:23:26;5.90;99.90
20200;DHT22;36284;37.236;-121.934;2022-11-03T09:25:53;5.90;99.90
20200;DHT22;36284;37.236;-121.934;2022-11-03T09:28:20;5.90;99.90
20200;DHT22;36284;37.236;-121.934;2022-11-03T09:30:47;5.80;99.90
20200;DHT22;36284;37.236;-121.934;2022-11-03T09:33:15;5.90;99.90
20200;DHT22;36284;37.236;-121.934;2022-11-03T09:35:41;5.80;99.90
20200;DHT22;36284;37.236;-121.934;2022-11-03T09:38:08;5.90;99.90
20200;DHT22;36284;37.236;-121.934;2022-11-03T09:40:35;5.70;99.90
20200;DHT22;36284;37.236;-121.934;2022-11-03T09:43:02;5.80;99.90
20200;DHT22;36284;37.236;-121.934;2022-11-03T09:45:29;5.80;99.90
20200;DHT22;36284;37.236;-121.934;2022-11-03T09:47:57;5.70;99.90
20200;DHT22;36284;37.236;-121.934;2022-11-03T09:50:24;5.60;99.90
20200;DHT22;36284;37.236;-121.934;2022-11-03T09:52:51;5.60;99.90
20200;DHT22;36284;37.236;-121.934;2022-11-03T09:55:26;5.70;99.90
20200;DHT22;36284;37.236;-121.934;2022-11-03T09:58:16;5.90;99.90
20200;DHT22;36284;37.236;-121.934;2022-11-03T10:00:44;6.00;99.90
20200;DHT22;36284;37.236;-121.934;2022-11-03T10:03:16;6.00;99.90
20200;DHT22;36284;37.236;-121.934;2022-11-03T10:05:46;5.90;99.90
20200;DHT22;36284;37.236;-121.934;2022-11-03T10:08:25;5.90;99.90
20200;DHT22;36284;37.236;-121.934;2022-11-03T10:10:53;5.90;99.90
20200;DHT22;36284;37.236;-121.934;2022-11-03T10:13:36;5.80;99.90
20200;DHT22;36284;37.236;-121.934;2022-11-03T10:16:06;5.80;99.90
20200;DHT22;36284;37.236;-121.934;2022-11-03T10:18:35;5.70;99.90
20200;DHT22;36284;37.236;-121.934;2022-11-03T10:21:15;5.70;99.90
20200;DHT22;36284;37.236;-121.934;2022-11-03T10:23:43;5.70;99.90
20200;DHT22;36284;37.236;-121.934;2022-11-03T10:26:14;5.60;99.90
20200;DHT22;36284;37.236;-121.934;2022-11-03T10:29:04;5.70;99.90
20200;DHT22;36284;37.236;-121.934;2022-11-03T10:31:37;5.60;99.90
20200;DHT22;36284;37.236;-121.934;2022-11-03T10:37:16;5.50;99.90
20200;DHT22;36284;37.236;-121.934;2022-11-03T10:39:46;5.50;99.90
20200;DHT22;36284;37.236;-121.934;2022-11-03T10:44:53;5.60;99.90
20200;DHT22;36284;37.236;-121.934;2022-11-03T10:47:24;5.50;99.90
20200;DHT22;36284;37.236;-121.934;2022-11-03T10:49:52;5.60;99.90
20200;DHT22;36284;37.236;-121.934;2022-11-03T10:52:25;5.60;99.90
20200;DHT22;36284;37.236;-121.934;2022-11-03T10:54:55;5.60;99.90
20200;DHT22;36284;37.236;-121.934;2022-11-03T10:57:23;5.60;99.90
20200;DHT22;36284;37.236;-121.934;2022-11-03T10:59:51;5.50;99.90
20200;DHT22;36284;37.236;-121.934;2022-11-03T11:02:25;5.40;99.90
20200;DHT22;36284;37.236;-121.934;2022-11-03T11:05:01;5.40;99.90
20200;DHT22;36284;37.236;-121.934;2022-11-03T11:07:34;5.30;99.90
20200;DHT22;36284;37.236;-121.934;2022-11-03T11:10:27;5.20;99.90
20200;DHT22;36284;37.236;-121.934;2022-11-03T11:15:45;5.30;99.90
20200;DHT22;36284;37.236;-121.934;2022-11-03T11:20:56;5.30;99.90
20200;DHT22;36284;37.236;-121.934;2022-11-03T11:28:36;5.40;99.90
20200;DHT22;36284;37.236;-121.934;2022-11-03T11:42:17;5.20;99.90
20200;DHT22;36284;37.236;-121.934;2022-11-03T11:44:45;5.20;99.90
20200;DHT22;36284;37.236;-121.934;2022-11-03T11:47:36;5.20;99.90
20200;DHT22;36284;37.236;-121.934;2022-11-03T11:52:55;5.40;99.90
20200;DHT22;36284;37.236;-121.934;2022-11-03T11:57:51;5.40;99.90
20200;DHT22;36284;37.236;-121.934;2022-11-03T12:00:21;5.40;99.90
20200;DHT22;36284;37.236;-121.934;2022-11-03T12:02:49;5.40;99.90
20200;DHT22;36284;37.236;-121.934;2022-11-03T12:05:34;5.40;99.90
20200;DHT22;36284;37.236;-121.934;2022-11-03T12:08:03;5.30;99.90
20200;DHT22;36284;37.236;-121.934;2022-11-03T12:10:54;5.40;99.90
20200;DHT22;36284;37.236;-121.934;2022-11-03T12:13:41;5.40;99.90
20200;DHT22;36284;37.236;-121.934;2022-11-03T12:16:25;5.40;99.90
20200;DHT22;36284;37.236;-121.934;2022-11-03T12:18:53;5.30;99.90
20200;DHT22;36284;37.236;-121.934;2022-11-03T12:21:46;5.30;99.90
20200;DHT22;36284;37.236;-121.934;2022-11-03T12:26:59;5.30;99.90
20200;DHT22;36284;37.236;-121.934;2022-11-03T12:29:26;5.30;99.90
20200;DHT22;36284;37.236;-121.934;2022-11-03T12:31:53;5.30;99.90
20200;DHT22;36284;37.236;-121.934;2022-11-03T12:34:20;5.30;99.90
20200;DHT22;36284;37.236;-121.934;2022-11-03T12:36:47;5.30;99.90
20200;DHT22;36284;37.236;-121.934;2022-11-03T12:39:14;5.40;99.90
20200;DHT22;36284;37.236;-121.934;2022-11-03T12:41:41;5.50;99.90
20200;DHT22;36284;37.236;-121.934;2022-11-03T12:44:07;5.40;99.90
20200;DHT22;36284;37.236;-121.934;2022-11-03T12:46:34;5.40;99.90
20200;DHT22;36284;37.236;-121.934;2022-11-03T12:49:01;5.40;99.90
20200;DHT22;36284;37.236;-121.934;2022-11-03T12:51:28;5.40;99.90
20200;DHT22;36284;37.236;-121.934;2022-11-03T12:53:55;5.30;99.90
20200;DHT22;36284;37.236;-121.934;2022-11-03T12:56:22;5.10;99.90
20200;DHT22;36284;37.236;-121.934;2022-11-03T12:58:49;5.30;99.90
20200;DHT22;36284;37.236;-121.934;2022-11-03T13:01:16;5.30;99.90
20200;DHT22;36284;37.236;-121.934;2022-11-03T13:03:44;5.20;99.90
20200;DHT22;36284;37.236;-121.934;2022-11-03T13:06:10;5.30;99.90
20200;DHT22;36284;37.236;-121.934;2022-11-03T13:08:40;5.20;99.90
20200;DHT22;36284;37.236;-121.934;2022-11-03T13:11:07;5.20;99.90
20200;DHT22;36284;37.236;-121.934;2022-11-03T13:13:54;5.20;99.90
20200;DHT22;36284;37.236;-121.934;2022-11-03T13:16:21;5.20;99.90
20200;DHT22;36284;37.236;-121.934;2022-11-03T13:18:48;5.00;99.90
20200;DHT22;36284;37.236;-121.934;2022-11-03T13:21:15;4.90;99.90
20200;DHT22;36284;37.236;-121.934;2022-11-03T13:23:42;4.90;99.90
20200;DHT22;36284;37.236;-121.934;2022-11-03T13:26:09;4.90;99.90
20200;DHT22;36284;37.236;-121.934;2022-11-03T13:28:36;4.90;99.90
20200;DHT22;36284;37.236;-121.934;2022-11-03T13:31:03;4.90;99.90
20200;DHT22;36284;37.236;-121.934;2022-11-03T13:33:30;5.00;99.90
20200;DHT22;36284;37.236;-121.934;2022-11-03T13:35:57;5.00;99.90
20200;DHT22;36284;37.236;-121.934;2022-11-03T13:38:24;5.00;99.90
20200;DHT22;36284;37.236;-121.934;2022-11-03T13:40:51;5.00;99.90
20200;DHT22;36284;37.236;-121.934;2022-11-03T13:43:17;5.10;99.90
20200;DHT22;36284;37.236;-121.934;2022-11-03T13:45:44;5.00;99.90
20200;DHT22;36284;37.236;-121.934;2022-11-03T13:48:11;5.00;99.90
20200;DHT22;36284;37.236;-121.934;2022-11-03T13:50:38;5.10;99.90
20200;DHT22;36284;37.236;-121.934;2022-11-03T13:53:06;5.00;99.90
20200;DHT22;36284;37.236;-121.934;2022-11-03T13:55:33;5.00;99.90
20200;DHT22;36284;37.236;-121.934;2022-11-03T13:58:00;5.00;99.90
20200;DHT22;36284;37.236;-121.934;2022-11-03T14:00:27;5.10;99.90
20200;DHT22;36284;37.236;-121.934;2022-11-03T14:02:54;5.10;99.90
20200;DHT22;36284;37.236;-121.934;2022-11-03T14:05:21;5.30;99.90
20200;DHT22;36284;37.236;-121.934;2022-11-03T14:07:47;5.10;99.90
20200;DHT22;36284;37.236;-121.934;2022-11-03T14:10:15;4.90;99.90
20200;DHT22;36284;37.236;-121.934;2022-11-03T14:12:42;4.90;99.90
20200;DHT22;36284;37.236;-121.934;2022-11-03T14:15:10;4.90;99.90
20200;DHT22;36284;37.236;-121.934;2022-11-03T14:17:38;4.90;99.90
20200;DHT22;36284;37.236;-121.934;2022-11-03T14:20:07;5.00;99.90
20200;DHT22;36284;37.236;-121.934;2022-11-03T14:22:36;5.00;99.90
20200;DHT22;36284;37.236;-121.934;2022-11-03T14:25:03;5.10;99.90
20200;DHT22;36284;37.236;-121.934;2022-11-03T14:27:30;5.10;99.90
20200;DHT22;36284;37.236;-121.934;2022-11-03T14:29:57;5.20;99.90
20200;DHT22;36284;37.236;-121.934;2022-11-03T14:32:24;5.20;99.90
20200;DHT22;36284;37.236;-121.934;2022-11-03T14:34:51;5.20;99.90
20200;DHT22;36284;37.236;-121.934;2022-11-03T14:37:18;5.10;99.90
20200;DHT22;36284;37.236;-121.934;2022-11-03T14:39:45;5.20;99.90
20200;DHT22;36284;37.236;-121.934;2022-11-03T14:42:13;5.20;99.90
20200;DHT22;36284;37.236;-121.934;2022-11-03T14:44:44;5.30;99.90
20200;DHT22;36284;37.236;-121.934;2022-11-03T14:47:16;5.30;99.90
20200;DHT22;36284;37.236;-121.934;2022-11-03T14:49:44;5.40;99.90
20200;DHT22;36284;37.236;-121.934;2022-11-03T14:52:12;5.30;99.90
20200;DHT22;36284;37.236;-121.934;2022-11-03T14:54:39;5.40;99.90
20200;DHT22;36284;37.236;-121.934;2022-11-03T14:57:06;5.60;99.90
20200;DHT22;36284;37.236;-121.934;2022-11-03T14:59:34;5.60;99.90
20200;DHT22;36284;37.236;-121.934;2022-11-03T15:02:02;5.60;99.90
20200;DHT22;36284;37.236;-121.934;2022-11-03T15:04:29;5.40;99.90
20200;DHT22;36284;37.236;-121.934;2022-11-03T15:06:56;5.50;99.90
20200;DHT22;36284;37.236;-121.934;2022-11-03T15:09:23;5.70;99.90
20200;DHT22;36284;37.236;-121.934;2022-11-03T15:11:50;5.80;99.90
20200;DHT22;36284;37.236;-121.934;2022-11-03T15:14:17;5.90;99.90
20200;DHT22;36284;37.236;-121.934;2022-11-03T15:16:44;6.10;99.90
20200;DHT22;36284;37.236;-121.934;2022-11-03T15:19:11;6.10;99.90
20200;DHT22;36284;37.236;-121.934;2022-11-03T15:21:38;6.20;99.90
20200;DHT22;36284;37.236;-121.934;2022-11-03T15:24:05;6.20;99.90
20200;DHT22;36284;37.236;-121.934;2022-11-03T15:26:32;6.20;99.90
20200;DHT22;36284;37.236;-121.934;2022-11-03T15:28:59;6.20;99.90
20200;DHT22;36284;37.236;-121.934;2022-11-03T15:31:26;6.90;99.90
20200;DHT22;36284;37.236;-121.934;2022-11-03T15:33:52;7.00;99.90
20200;DHT22;36284;37.236;-121.934;2022-11-03T15:36:21;6.70;99.90
20200;DHT22;36284;37.236;-121.934;2022-11-03T15:38:49;6.50;99.90
20200;DHT22;36284;37.236;-121.934;2022-11-03T15:41:15;6.50;99.90
20200;DHT22;36284;37.236;-121.934;2022-11-03T15:43:44;6.50;99.90
20200;DHT22;36284;37.236;-121.934;2022-11-03T15:46:11;6.50;99.90
20200;DHT22;36284;37.236;-121.934;2022-11-03T15:48:38;6.60;99.90
20200;DHT22;36284;37.236;-121.934;2022-11-03T15:51:05;6.70;99.90
20200;DHT22;36284;37.236;-121.934;2022-11-03T15:53:32;6.80;99.90
20200;DHT22;36284;37.236;-121.934;2022-11-03T15:56:00;7.00;99.90
20200;DHT22;36284;37.236;-121.934;2022-11-03T15:58:26;7.10;99.90
20200;DHT22;36284;37.236;-121.934;2022-11-03T16:00:53;7.30;99.90
20200;DHT22;36284;37.236;-121.934;2022-11-03T16:03:20;7.40;99.90
20200;DHT22;36284;37.236;-121.934;2022-11-03T16:05:47;7.40;99.90
20200;DHT22;36284;37.236;-121.934;2022-11-03T16:08:14;7.60;99.90
20200;DHT22;36284;37.236;-121.934;2022-11-03T16:10:41;7.60;99.90
20200;DHT22;36284;37.236;-121.934;2022-11-03T16:13:08;7.70;99.90
20200;DHT22;36284;37.236;-121.934;2022-11-03T16:15:35;7.90;99.90
20200;DHT22;36284;37.236;-121.934;2022-11-03T16:18:01;8.30;99.90
20200;DHT22;36284;37.236;-121.934;2022-11-03T16:20:29;8.80;99.90
20200;DHT22;36284;37.236;-121.934;2022-11-03T16:22:56;9.20;99.90
20200;DHT22;36284;37.236;-121.934;2022-11-03T16:25:23;9.80;99.90
20200;DHT22;36284;37.236;-121.934;2022-11-03T16:27:50;10.30;99.90
20200;DHT22;36284;37.236;-121.934;2022-11-03T16:30:17;10.80;99.90